メインページ
METAR-TAF:

METAR-TAF

空港 :

Golden, ブリティッシュコロンビア州, カナダ

緯度: 51-18N, 経度: 116-59W, 海抜: 785m

現時点の気象観測

当レポートは4時間35分前の00:00(UTC)に作成
北/北西の風 3kt、西/北西からの間で変化する
気温 21°C
湿度 33%
気圧 1009 hPa
視程: 32.2km
高度5000ftの雲はほとんどない
高度7500ftの雲はほとんどない, 塔状積雲.
高度15000ftの雲はほとんどない

METAR: CYGE 260000Z 33003KT 290V010 20SM FEW050 FEW075TCU FEW150 21/04 A2979 RMK CU1TCU2AC1 CU TR AC TR TCU ALQDS LAST STFD OBS/NEXT 261200Z SLP093 DENSITY ALT 4000FT

時間: 22:35 (04:35 UTC)


TAF: 見つかりません

4,000以上の空港の気象観測と天気予報(METAR報とTAF報)

利用可能な観測所は地図上に黄色い丸と赤い丸で示す。

丸の上にカーソルを重ねると観測所名を参照できる。

次にクリックすると気象観測と天気予報を参照できる。

マップの切り替え:黒色「×」印の緑ボタンをクリックして拡大、「-」印の緑ボタンをクリックして縮小、緑色の三角印をクリックして隣りの地図に切り替え


METAR-TAF: